Terminal Aerodrome Forecast
Issued by NWS

Home | Current Version | Previous Version | Text Only | Print | Product List | Glossary On
Versions: 1 2 3 4 5 6 7 8 9 10 11 12 13 14 15 16 17 18 19 20 21 22 23 24 25 26 27 28 29 30 31 32 33 34 35 36 37 38 39 40 41 42 43 44 45 46 47 48 49
000
FTUS44 KBMX 191230 AAA
TAFEET
TAF AMD
KEET 191230Z 1913/2012 19005KT 2SM BR VCSH BKN005 OVC010
     FM191400 23007KT P6SM BKN015
     FM191700 25009KT P6SM VCTS BKN050CB
     FM192200 23008KT P6SM SCT050
     FM201000 32015G25KT 2SM TSRA BKN025CB=

USA.gov is the U.S. government's official web portal to all federal, state and local government web resources and services.